Terminal Aerodrome Forecast
Issued by NWS Cleveland, OH

Home | Current Version | Previous Version | Graphics & Text | Print | Product List | Glossary On
Versions: 1 2 3 4 5 6 7 8 9 10 11 12 13 14 15 16 17 18 19 20 21
370
FTUS41 KCLE 131756
TAFMFD
TAF
KMFD 131756Z 1318/1418 17010KT 2SM -SN OVC025
      TEMPO 1318/1320 OVC015
     FM132000 19012KT P6SM VCSH OVC050
      TEMPO 1320/1322 OVC020
     FM132200 18011KT 3SM -SN OVC035
      TEMPO 1322/1324 BKN025
     FM140100 18011KT 3/4SM -SHSN OVC010
     FM140800 33010KT P6SM BKN007 OVC012
     FM141200 33009KT P6SM SCT007 OVC012=

USA.gov is the U.S. government's official web portal to all federal, state and local government web resources and services.